Weather reports worldwide

Advertisment
Monte Scuro, Italy (16344): temperature & dewpoint: 18.06.2018 11:00:00 - 24.06.2018 11:00:00 (CEST)Monte Scuro, Italy (16344): wind speed: 18.06.2018 11:00:00 - 24.06.2018 11:00:00 (CEST)Monte Scuro, Italy (16344): wind direction: 18.06.2018 11:00:00 - 24.06.2018 11:00:00 (CEST)Monte Scuro, Italy (16344): visibility: 18.06.2018 11:00:00 - 24.06.2018 11:00:00 (CEST)Monte Scuro, Italy (16344): sunshine duration: 18.06.2018 11:00:00 - 24.06.2018 11:00:00 (CEST)
Date & Time tt [°C] td [°C] ff [km/h] ff [kn] dd vv [km] sd [min]
24.06.2018 11:00:00 13,4 10,5 11 6 E 8 36
24.06.2018 10:00:00 12,6 7,3 0 0 N 20 54
24.06.2018 09:00:00 10,8 2,1 13 7 ENE 20 6
24.06.2018 08:00:00 8,8 1,5 13 7 ENE 15 0
24.06.2018 07:00:00 8,8 7,4 18 10 ENE 10 -
24.06.2018 06:00:00 10,0 9,7 5 3 ENE 10 -
24.06.2018 05:00:00 10,2 9,6 11 6 NE - -
24.06.2018 04:00:00 10,0 9,2 8 4 NE - -
24.06.2018 03:00:00 11,0 7,7 5 3 ENE 15 -
24.06.2018 02:00:00 11,0 5,8 5 3 ENE 15 -
24.06.2018 01:00:00 10,6 7,1 5 3 ENE 15 -
24.06.2018 00:00:00 11,0 7,9 13 7 ENE 15 -
23.06.2018 23:00:00 10,4 7,5 9 5 ENE 15 -
23.06.2018 22:00:00 11,0 8,4 13 7 ENE 15 -
23.06.2018 21:00:00 11,0 8,6 11 6 ENE 15 -
23.06.2018 20:00:00 11,2 8,8 13 7 ENE 20 12
23.06.2018 19:00:00 12,4 7,5 11 6 NE 25 60
23.06.2018 18:00:00 14,8 7,6 9 5 NE 25 60
23.06.2018 17:00:00 13,4 9,1 11 6 NE 25 30
23.06.2018 16:00:00 13,0 10,2 16 9 NE 20 60
23.06.2018 15:00:00 13,2 10,5 16 9 NE 20 60
23.06.2018 14:00:00 12,2 9,8 15 8 NNE 15 36
23.06.2018 13:00:00 11,0 10,1 16 9 NE 10 0
23.06.2018 12:00:00 10,8 10,2 28 15 NE - 0
23.06.2018 11:00:00 12,8 12,2 18 10 NE - 48
23.06.2018 10:00:00 13,4 12,1 15 8 NNE 15 60
23.06.2018 09:00:00 13,4 11,8 15 8 ENE 15 60
23.06.2018 08:00:00 14,0 11,5 9 5 NNE 20 60
23.06.2018 07:00:00 15,2 9,1 5 3 NNE 20 60
23.06.2018 06:00:00 12,2 8,9 4 2 W 20 -
23.06.2018 05:00:00 12,6 9,2 9 5 WNW 15 -
23.06.2018 04:00:00 12,4 8,5 11 6 N 10 -
23.06.2018 03:00:00 12,4 8,3 11 6 N 10 -
23.06.2018 02:00:00 12,0 8,8 15 8 W 10 -
23.06.2018 01:00:00 12,0 10,2 15 8 W 10 -
23.06.2018 00:00:00 12,0 8,8 15 8 W 10 -
22.06.2018 23:00:00 12,2 9,8 18 10 W 10 -
22.06.2018 22:00:00 12,2 8,9 18 10 W 10 -
22.06.2018 21:00:00 12,4 11,5 18 10 W 10 -
22.06.2018 20:00:00 13,8 13,2 18 10 W - 12
22.06.2018 19:00:00 14,0 13,4 18 10 W - 30
22.06.2018 18:00:00 14,8 14,0 18 10 W 15 48
22.06.2018 17:00:00 15,4 14,6 15 8 W 15 36
22.06.2018 16:00:00 16,0 14,5 15 8 W 15 60
22.06.2018 15:00:00 16,2 13,9 15 8 W 15 60
22.06.2018 14:00:00 16,0 13,5 15 8 W 20 60
22.06.2018 13:00:00 16,0 13,3 15 8 WSW 20 60
22.06.2018 12:00:00 15,6 12,9 11 6 SW 20 60
22.06.2018 11:00:00 15,4 11,4 11 6 SW 20 60
22.06.2018 10:00:00 16,0 9,9 18 10 NW 25 60
22.06.2018 09:00:00 16,4 3,8 18 10 WNW 25 60
22.06.2018 08:00:00 17,6 4,2 18 10 NW 25 60
22.06.2018 07:00:00 14,0 4,6 16 9 WNW 20 24
22.06.2018 06:00:00 11,8 6,3 26 14 W 10 -
22.06.2018 05:00:00 11,8 6,5 28 15 W 10 -
22.06.2018 04:00:00 11,8 5,7 24 13 W 10 -
22.06.2018 03:00:00 12,0 6,3 16 9 W 10 -
22.06.2018 02:00:00 13,0 9,1 26 14 W 10 -
22.06.2018 01:00:00 12,8 8,1 16 9 W 10 -
22.06.2018 00:00:00 12,8 7,5 21 11 W 10 -
21.06.2018 23:00:00 12,8 7,5 15 8 W 10 -
21.06.2018 22:00:00 12,8 8,5 18 10 WSW 10 -
21.06.2018 21:00:00 13,0 8,3 16 9 W 10 -
21.06.2018 20:00:00 13,6 7,8 22 12 W 10 18
21.06.2018 19:00:00 14,6 10,6 18 10 W 10 36
21.06.2018 18:00:00 14,4 12,1 16 9 WSW 15 -
21.06.2018 17:00:00 14,6 13,3 9 5 W 10 0
21.06.2018 16:00:00 14,8 13,0 9 5 WSW 10 0
21.06.2018 15:00:00 13,0 11,4 16 9 W 10 0
21.06.2018 14:00:00 14,8 11,8 15 8 WSW 10 0
21.06.2018 13:00:00 15,2 9,8 15 8 WSW 20 18
21.06.2018 12:00:00 14,8 9,6 15 8 SW 20 18
21.06.2018 11:00:00 14,4 8,8 9 5 SW 20 36
21.06.2018 10:00:00 15,0 6,8 11 6 SSW 25 60
21.06.2018 09:00:00 16,0 6,4 9 5 NNE 25 60
21.06.2018 08:00:00 15,0 7,3 0 0 N 25 60
21.06.2018 07:00:00 14,0 6,4 15 8 NE 25 48
21.06.2018 06:00:00 11,0 4,9 15 8 NE 25 0
21.06.2018 05:00:00 11,0 4,0 18 10 NNE 13 -
21.06.2018 04:00:00 11,0 3,1 18 10 NNE 10 -
21.06.2018 03:00:00 10,2 2,3 15 8 NE 10 -
21.06.2018 02:00:00 10,0 6,7 18 10 NNE 10 -
21.06.2018 01:00:00 - - - - - - -
21.06.2018 00:00:00 10,0 4,8 28 15 NE 10 -
20.06.2018 23:00:00 10,2 5,6 31 17 NE 10 -
20.06.2018 22:00:00 10,6 6,5 28 15 NE 10 -
20.06.2018 21:00:00 10,2 8,8 28 15 NE 13 -
20.06.2018 20:00:00 10,8 9,4 24 13 NE 15 0
20.06.2018 19:00:00 10,8 9,4 22 12 NE 15 0
20.06.2018 18:00:00 10,8 9,2 9 5 NNE 15 0
20.06.2018 17:00:00 11,2 9,6 13 7 NE 15 0
20.06.2018 16:00:00 12,0 10,4 11 6 NE 15 0
20.06.2018 15:00:00 13,0 10,5 13 7 NNE 15 0
20.06.2018 14:00:00 14,0 10,6 13 7 NNE 15 48
20.06.2018 13:00:00 13,2 9,8 13 7 NNE 15 6
20.06.2018 12:00:00 13,0 11,4 18 10 NE 15 0
20.06.2018 11:00:00 11,8 10,2 28 15 NE 15 0
20.06.2018 10:00:00 10,2 9,0 18 10 SSW - 0
20.06.2018 09:00:00 10,4 9,2 24 13 E 6 0
20.06.2018 08:00:00 10,2 9,0 41 22 E 8 0
20.06.2018 07:00:00 10,0 8,5 29 16 E 7 -
20.06.2018 06:00:00 10,0 8,5 29 16 E 8 -
20.06.2018 05:00:00 10,0 8,5 52 28 E 7 -
20.06.2018 04:00:00 10,0 8,5 52 28 E 5 -
20.06.2018 03:00:00 11,0 10,2 41 22 E - -
20.06.2018 02:00:00 11,0 10,2 59 32 E - -
20.06.2018 01:00:00 11,0 10,2 48 26 E - -
20.06.2018 00:00:00 11,0 10,2 48 26 E - -
19.06.2018 23:00:00 11,0 10,2 55 30 E 0,7 -
19.06.2018 22:00:00 11,0 10,2 41 22 E 1,2 -
19.06.2018 21:00:00 11,4 10,4 24 13 E 1,2 -
19.06.2018 20:00:00 12,4 11,4 18 10 SSW 10 0
19.06.2018 19:00:00 12,6 11,8 18 10 SSW 10 0
19.06.2018 18:00:00 13,0 12,1 15 8 SW 10 0
19.06.2018 17:00:00 13,0 11,4 41 22 E 5 0
19.06.2018 16:00:00 12,8 11,9 52 28 E 6 6
19.06.2018 15:00:00 13,4 11,2 41 22 E 8 0
19.06.2018 14:00:00 13,0 11,1 24 13 SW 7 12
19.06.2018 13:00:00 12,0 10,2 24 13 SW 5 6
19.06.2018 12:00:00 12,0 10,2 18 10 SSW 5 6
19.06.2018 11:00:00 11,8 11,0 24 13 SSW 5 0
19.06.2018 10:00:00 11,0 11,0 9 5 E - 0
19.06.2018 09:00:00 11,0 11,0 9 5 E - 0
19.06.2018 08:00:00 11,0 10,2 8 4 WNW 10 36
19.06.2018 07:00:00 10,0 9,2 0 0 N 10 -
19.06.2018 06:00:00 10,0 9,2 11 6 WSW 10 -
19.06.2018 05:00:00 11,0 11,0 9 5 WSW - -
19.06.2018 04:00:00 11,0 11,0 9 5 WSW - -
19.06.2018 03:00:00 11,0 11,0 9 5 WSW - -
19.06.2018 02:00:00 11,0 11,0 0 0 N - -
19.06.2018 01:00:00 11,0 11,0 0 0 N - -
19.06.2018 00:00:00 11,0 11,0 0 0 N - -
18.06.2018 23:00:00 11,0 11,0 0 0 N - -
18.06.2018 22:00:00 11,0 11,0 0 0 N - -
18.06.2018 21:00:00 11,0 11,0 0 0 N - -
18.06.2018 20:00:00 12,0 12,0 5 3 E 10 0
18.06.2018 19:00:00 12,0 12,0 4 2 E 10 0
18.06.2018 18:00:00 14,0 14,0 4 2 NW - 0
18.06.2018 17:00:00 14,0 14,0 9 5 NNW - 0
18.06.2018 16:00:00 15,0 15,0 8 4 NNW - 0
18.06.2018 15:00:00 15,0 15,0 5 3 NNW - 0
18.06.2018 14:00:00 15,0 12,5 0 0 N 10 0
18.06.2018 13:00:00 15,0 12,5 5 3 WNW 10 0
18.06.2018 12:00:00 15,0 12,5 4 2 WNW 10 0
18.06.2018 11:00:00 15,0 12,5 4 2 WNW 10 12

tt = temperature
td = dewpoint
ff = wind speed
dd = wind direction
vv = visibility
sd = sunshine duration

Next stations